createdAt,value
2019-02-09T00:00:54.316Z,8.30
2019-02-09T00:03:35.718Z,8.30
2019-02-09T00:06:21.008Z,8.30
2019-02-09T00:09:02.683Z,8.30
2019-02-09T00:11:43.954Z,8.30
2019-02-09T00:14:25.546Z,8.30
2019-02-09T00:17:06.726Z,8.30
2019-02-09T00:19:47.260Z,8.30
2019-02-09T00:22:27.938Z,8.30
2019-02-09T00:25:08.660Z,8.30
2019-02-09T00:27:49.289Z,8.30
2019-02-09T00:30:30.556Z,8.40
2019-02-09T00:33:11.923Z,8.40
2019-02-09T00:35:53.131Z,8.30
2019-02-09T00:38:33.582Z,8.40
2019-02-09T00:41:14.865Z,8.40
2019-02-09T00:43:55.315Z,8.40
2019-02-09T00:46:36.247Z,8.40
2019-02-09T00:49:17.707Z,8.40
2019-02-09T00:51:58.243Z,8.40
2019-02-09T00:54:39.757Z,8.40
2019-02-09T00:57:20.422Z,8.40
2019-02-09T01:00:01.614Z,8.50
2019-02-09T01:02:42.283Z,8.50
2019-02-09T01:05:23.731Z,8.40
2019-02-09T01:08:05.325Z,8.40
2019-02-09T01:10:46.390Z,8.30
2019-02-09T01:13:27.239Z,8.40
2019-02-09T01:16:08.275Z,8.30
2019-02-09T01:18:50.045Z,8.20
2019-02-09T01:21:31.744Z,8.20
2019-02-09T01:24:12.734Z,8.20
2019-02-09T01:26:54.168Z,8.20
2019-02-09T01:32:45.594Z,8.10
2019-02-09T01:35:33.846Z,8.10
2019-02-09T01:38:03.198Z,8.10
2019-02-09T01:40:32.581Z,8.00
2019-02-09T01:43:40.030Z,8.00
2019-02-09T01:46:28.386Z,7.90
2019-02-09T01:49:09.622Z,7.90
2019-02-09T01:51:50.767Z,7.80
2019-02-09T01:54:31.402Z,7.90
2019-02-09T01:57:12.160Z,7.90
2019-02-09T01:59:52.940Z,7.90
2019-02-09T02:02:33.670Z,8.00
2019-02-09T02:05:14.572Z,8.00
2019-02-09T02:07:55.193Z,8.00
2019-02-09T02:10:35.901Z,7.90
2019-02-09T02:13:17.102Z,8.00
2019-02-09T02:15:58.106Z,8.00
2019-02-09T02:18:39.458Z,8.10
2019-02-09T02:21:20.093Z,8.10
2019-02-09T02:24:00.772Z,8.10
2019-02-09T02:26:41.382Z,8.10
2019-02-09T02:29:22.207Z,8.00
2019-02-09T02:32:03.104Z,8.00
2019-02-09T02:34:44.338Z,7.90
2019-02-09T02:37:27.807Z,7.90
2019-02-09T02:40:09.095Z,7.90
2019-02-09T02:42:50.177Z,8.00
2019-02-09T02:45:30.783Z,8.00
2019-02-09T02:48:12.113Z,8.00
2019-02-09T02:50:52.631Z,8.10
2019-02-09T02:53:33.956Z,8.00
2019-02-09T02:58:57.420Z,8.00
2019-02-09T03:01:38.726Z,8.00
2019-02-09T03:04:18.137Z,8.00
2019-02-09T03:06:59.171Z,8.00
2019-02-09T03:09:39.865Z,8.10
2019-02-09T03:12:20.657Z,8.10
2019-02-09T03:15:02.055Z,8.10
2019-02-09T03:17:43.497Z,8.20
2019-02-09T03:20:24.253Z,8.20
2019-02-09T03:23:04.757Z,8.20
2019-02-09T03:25:45.476Z,8.10
2019-02-09T03:28:26.297Z,8.20
2019-02-09T03:31:07.102Z,8.20
2019-02-09T03:33:47.756Z,8.20
2019-02-09T03:36:28.659Z,8.20
2019-02-09T03:39:09.456Z,8.20
2019-02-09T03:41:51.136Z,8.20
2019-02-09T03:44:31.737Z,8.30
2019-02-09T03:47:13.146Z,8.30
2019-02-09T03:49:53.928Z,8.30
2019-02-09T03:52:35.500Z,8.20
2019-02-09T03:55:16.765Z,8.20
2019-02-09T03:57:58.061Z,8.30
2019-02-09T04:00:39.237Z,8.30
2019-02-09T04:03:19.813Z,8.30
2019-02-09T04:06:00.611Z,8.30
2019-02-09T04:08:41.480Z,8.20
2019-02-09T04:11:22.558Z,8.20
2019-02-09T04:14:03.396Z,8.30
2019-02-09T04:16:44.242Z,8.30
2019-02-09T04:19:25.398Z,8.30
2019-02-09T04:22:06.178Z,8.30
2019-02-09T04:24:47.498Z,8.20
2019-02-09T04:27:28.008Z,8.10
2019-02-09T04:30:10.526Z,8.00
2019-02-09T04:32:51.207Z,8.00
2019-02-09T04:35:30.557Z,8.00
2019-02-09T04:38:11.419Z,8.00
2019-02-09T04:40:52.029Z,8.00
2019-02-09T04:43:32.933Z,7.90
2019-02-09T04:46:12.311Z,7.90
2019-02-09T04:48:53.384Z,7.90
2019-02-09T04:51:22.739Z,7.80
2019-02-09T04:54:11.023Z,7.90
2019-02-09T04:56:59.301Z,7.80
2019-02-09T04:59:40.383Z,7.80
2019-02-09T05:02:20.841Z,7.80
2019-02-09T05:05:02.703Z,7.80
2019-02-09T05:07:44.223Z,7.90
2019-02-09T05:10:25.244Z,7.80
2019-02-09T05:13:05.737Z,7.90
2019-02-09T05:15:46.557Z,7.90
2019-02-09T05:18:27.363Z,8.00
2019-02-09T05:21:08.227Z,8.00
2019-02-09T05:23:48.957Z,8.10
2019-02-09T05:26:29.919Z,8.10
2019-02-09T05:29:10.426Z,8.10
2019-02-09T05:31:51.059Z,8.10
2019-02-09T05:34:32.421Z,8.10
2019-02-09T05:37:12.975Z,8.10
2019-02-09T05:39:54.180Z,8.10
2019-02-09T05:42:34.685Z,8.20
2019-02-09T05:45:15.378Z,8.10
2019-02-09T05:47:56.501Z,8.10
2019-02-09T05:50:37.227Z,8.00
2019-02-09T05:53:18.547Z,8.00
2019-02-09T05:55:59.062Z,7.90
2019-02-09T05:58:39.592Z,7.80
2019-02-09T06:01:20.496Z,7.70
2019-02-09T06:04:02.044Z,7.70
2019-02-09T06:06:42.530Z,7.70
2019-02-09T06:09:23.874Z,7.60
2019-02-09T06:12:04.592Z,7.60
2019-02-09T06:14:45.662Z,7.60
2019-02-09T06:17:26.406Z,7.50
2019-02-09T06:20:07.760Z,7.50
2019-02-09T06:22:49.213Z,7.60
2019-02-09T06:25:29.797Z,7.60
2019-02-09T06:28:11.360Z,7.60
2019-02-09T06:30:53.012Z,7.50
2019-02-09T06:33:33.651Z,7.50
2019-02-09T06:36:13.022Z,7.50
2019-02-09T06:38:53.884Z,7.50
2019-02-09T06:41:34.312Z,7.40
2019-02-09T06:44:15.488Z,7.30
2019-02-09T06:46:56.293Z,7.30
2019-02-09T06:49:35.324Z,7.30
2019-02-09T06:52:23.556Z,7.30
2019-02-09T06:54:52.955Z,7.20
2019-02-09T06:57:22.399Z,7.20
2019-02-09T07:00:11.976Z,7.20
2019-02-09T07:03:00.278Z,7.30
2019-02-09T07:05:40.820Z,7.30
2019-02-09T07:08:21.643Z,7.30
2019-02-09T07:11:02.637Z,7.20
2019-02-09T07:13:43.601Z,7.20
2019-02-09T07:16:24.227Z,7.10
2019-02-09T07:19:05.049Z,7.10
2019-02-09T07:21:46.333Z,7.10
2019-02-09T07:24:27.312Z,7.10
2019-02-09T07:27:08.703Z,7.20
2019-02-09T07:29:49.592Z,7.20
2019-02-09T07:32:30.909Z,7.20
2019-02-09T07:35:11.991Z,7.20
2019-02-09T07:37:52.987Z,7.20
2019-02-09T07:40:32.450Z,7.10
2019-02-09T07:43:20.758Z,7.30
2019-02-09T07:46:01.305Z,7.30
2019-02-09T07:51:20.796Z,7.30
2019-02-09T07:54:01.352Z,7.40
2019-02-09T07:56:42.319Z,7.40
2019-02-09T07:59:22.958Z,7.40
2019-02-09T08:02:04.817Z,7.40
2019-02-09T08:04:46.276Z,7.40
2019-02-09T08:07:27.761Z,7.50
2019-02-09T08:10:08.290Z,7.50
2019-02-09T08:12:48.781Z,7.60
2019-02-09T08:15:29.832Z,7.60
2019-02-09T08:18:11.047Z,7.50
2019-02-09T08:20:52.156Z,7.50
2019-02-09T08:23:32.766Z,7.50
2019-02-09T08:26:12.650Z,7.40
2019-02-09T08:28:53.872Z,7.50
2019-02-09T08:31:35.100Z,7.50
2019-02-09T08:34:17.110Z,7.40
2019-02-09T08:36:58.111Z,7.40
2019-02-09T08:39:39.548Z,7.40
2019-02-09T08:42:20.305Z,7.40
2019-02-09T08:45:01.640Z,7.40
2019-02-09T08:47:42.486Z,7.50
2019-02-09T08:50:23.042Z,7.50
2019-02-09T08:53:03.730Z,7.50
2019-02-09T08:55:44.964Z,7.70
2019-02-09T08:58:25.994Z,7.80
2019-02-09T09:01:05.618Z,7.80
2019-02-09T09:03:53.858Z,7.90
2019-02-09T09:06:34.951Z,7.90
2019-02-09T09:09:15.637Z,8.00
2019-02-09T09:14:54.853Z,8.20
2019-02-09T09:17:35.445Z,8.20
2019-02-09T09:20:16.788Z,8.30
2019-02-09T09:22:57.614Z,8.30
2019-02-09T09:25:38.309Z,8.30
2019-02-09T09:28:19.665Z,8.30
2019-02-09T09:34:13.801Z,8.30
2019-02-09T09:36:54.259Z,8.30
2019-02-09T09:39:35.570Z,8.30
2019-02-09T09:42:16.703Z,8.30
2019-02-09T09:44:57.456Z,8.30
2019-02-09T09:47:38.134Z,8.40
2019-02-09T09:50:19.260Z,8.40
2019-02-09T09:53:00.042Z,8.50
2019-02-09T09:55:40.991Z,8.50
2019-02-09T09:58:22.288Z,8.70
2019-02-09T10:01:03.747Z,8.80
2019-02-09T10:03:45.874Z,8.90
2019-02-09T10:06:27.297Z,8.90
2019-02-09T10:09:08.076Z,9.00
2019-02-09T10:11:49.868Z,9.00
2019-02-09T10:14:31.032Z,9.10
2019-02-09T10:17:12.528Z,9.10
2019-02-09T10:19:53.598Z,9.10
2019-02-09T10:22:34.066Z,9.10
2019-02-09T10:25:15.411Z,9.10
2019-02-09T10:27:56.853Z,9.00
2019-02-09T10:30:37.442Z,9.10
2019-02-09T10:33:18.837Z,9.30
2019-02-09T10:35:59.634Z,9.50
2019-02-09T10:38:40.240Z,9.50
2019-02-09T10:41:21.746Z,9.30
2019-02-09T10:44:04.520Z,9.40
2019-02-09T10:46:46.282Z,9.40
2019-02-09T10:49:27.678Z,9.50
2019-02-09T10:52:08.430Z,9.50
2019-02-09T10:54:49.546Z,9.60
2019-02-09T10:57:30.962Z,9.80
2019-02-09T11:00:12.492Z,9.80
2019-02-09T11:02:53.467Z,9.70
2019-02-09T11:05:34.296Z,9.70
2019-02-09T11:08:15.219Z,9.60
2019-02-09T11:10:56.592Z,9.70
2019-02-09T11:13:37.443Z,9.70
2019-02-09T11:16:18.518Z,9.80
2019-02-09T11:18:57.916Z,9.90
2019-02-09T11:21:38.685Z,9.90
2019-02-09T11:24:19.955Z,9.80
2019-02-09T11:27:00.894Z,9.80
2019-02-09T11:29:40.183Z,9.80
2019-02-09T11:32:20.739Z,9.80
2019-02-09T11:35:01.482Z,9.80
2019-02-09T11:37:42.407Z,9.60
2019-02-09T11:40:23.181Z,9.60
2019-02-09T11:43:04.289Z,9.40
2019-02-09T11:45:45.077Z,9.20
2019-02-09T11:48:25.653Z,9.00
2019-02-09T11:51:04.861Z,8.90
2019-02-09T11:53:45.761Z,8.70
2019-02-09T11:56:25.007Z,8.60
2019-02-09T11:59:05.861Z,8.50
2019-02-09T12:04:28.732Z,8.40
2019-02-09T12:07:09.612Z,8.50
2019-02-09T12:09:39.086Z,8.50
2019-02-09T12:12:27.383Z,8.40
2019-02-09T12:15:08.061Z,8.50
2019-02-09T12:17:56.377Z,8.50
2019-02-09T12:20:35.781Z,8.60
2019-02-09T12:23:24.102Z,8.70
2019-02-09T12:28:54.490Z,8.90
2019-02-09T12:31:35.074Z,9.00
2019-02-09T12:34:15.964Z,9.10
2019-02-09T12:36:57.442Z,9.30
2019-02-09T12:39:38.848Z,9.40
2019-02-09T12:42:19.478Z,9.50
2019-02-09T12:45:00.582Z,9.60
2019-02-09T12:47:41.956Z,9.70
2019-02-09T12:50:22.875Z,9.80
2019-02-09T12:53:04.276Z,9.80
2019-02-09T12:55:45.948Z,9.90
2019-02-09T12:58:27.104Z,10.00
2019-02-09T13:01:06.942Z,10.10
2019-02-09T13:03:55.553Z,10.20
2019-02-09T13:06:37.050Z,10.30
2019-02-09T13:09:18.569Z,10.40
2019-02-09T13:11:59.474Z,10.40
2019-02-09T13:14:40.534Z,10.40
2019-02-09T13:17:21.169Z,10.40
2019-02-09T13:20:02.511Z,10.40
2019-02-09T13:22:43.904Z,10.40
2019-02-09T13:25:25.582Z,10.40
2019-02-09T13:28:06.899Z,10.40
2019-02-09T13:30:48.191Z,10.40
2019-02-09T13:33:29.135Z,10.40
2019-02-09T13:36:10.523Z,10.40
2019-02-09T13:38:51.517Z,10.40
2019-02-09T13:41:32.705Z,10.40
2019-02-09T13:44:13.841Z,10.40
2019-02-09T13:46:54.869Z,10.40
2019-02-09T13:49:35.841Z,10.50
2019-02-09T13:52:16.437Z,10.50
2019-02-09T13:54:57.644Z,10.70
2019-02-09T13:57:38.685Z,10.60
2019-02-09T14:00:19.676Z,10.70
2019-02-09T14:03:00.663Z,10.60
2019-02-09T14:05:41.953Z,10.70
2019-02-09T14:08:23.607Z,10.70
2019-02-09T14:11:05.064Z,10.70
2019-02-09T14:13:46.241Z,10.70
2019-02-09T14:16:27.055Z,10.70
2019-02-09T14:19:06.396Z,10.60
2019-02-09T14:21:54.632Z,10.60
2019-02-09T14:24:42.923Z,10.50
2019-02-09T14:30:06.135Z,10.40
2019-02-09T14:32:46.802Z,10.40
2019-02-09T14:35:27.686Z,10.30
2019-02-09T14:38:09.322Z,10.30
2019-02-09T14:40:50.566Z,10.20
2019-02-09T14:43:31.705Z,10.10
2019-02-09T14:46:13.165Z,10.00
2019-02-09T14:48:53.720Z,9.90
2019-02-09T14:51:34.706Z,9.80
2019-02-09T14:54:15.279Z,9.80
2019-02-09T14:56:55.916Z,9.70
2019-02-09T14:59:37.336Z,9.70
2019-02-09T15:02:18.282Z,9.70
2019-02-09T15:04:59.345Z,9.60
2019-02-09T15:07:40.802Z,9.60
2019-02-09T15:10:22.114Z,9.60
2019-02-09T15:13:02.995Z,9.70
2019-02-09T15:15:43.600Z,9.70
2019-02-09T15:18:27.468Z,9.70
2019-02-09T15:21:08.099Z,9.70
2019-02-09T15:23:49.101Z,9.80
2019-02-09T15:26:29.914Z,9.80
2019-02-09T15:29:10.930Z,9.90
2019-02-09T15:31:52.245Z,9.90
2019-02-09T15:34:33.484Z,9.90
2019-02-09T15:37:13.924Z,9.90
2019-02-09T15:39:54.642Z,9.90
2019-02-09T15:42:35.767Z,9.80
2019-02-09T15:45:16.825Z,9.90
2019-02-09T15:47:57.473Z,9.90
2019-02-09T15:50:38.805Z,9.90
2019-02-09T15:53:19.491Z,9.90
2019-02-09T15:56:00.315Z,9.90
2019-02-09T16:01:39.869Z,9.90
2019-02-09T16:04:21.099Z,9.90
2019-02-09T16:07:02.493Z,9.80
2019-02-09T16:09:44.654Z,9.80
2019-02-09T16:12:25.763Z,9.90
2019-02-09T16:18:25.957Z,9.80
2019-02-09T16:21:07.334Z,9.80
2019-02-09T16:23:48.711Z,9.80
2019-02-09T16:29:42.748Z,9.70
2019-02-09T16:32:23.195Z,9.70
2019-02-09T16:35:04.744Z,9.70
2019-02-09T16:41:04.354Z,9.70
2019-02-09T16:43:44.854Z,9.60
2019-02-09T16:46:25.674Z,9.50
2019-02-09T16:49:06.203Z,9.50
2019-02-09T16:51:47.653Z,9.50
2019-02-09T16:54:28.416Z,9.40
2019-02-09T16:57:09.042Z,9.40
2019-02-09T16:59:50.600Z,9.40
2019-02-09T17:02:31.256Z,9.30
2019-02-09T17:05:12.454Z,9.30
2019-02-09T17:07:53.141Z,9.30
2019-02-09T17:10:33.830Z,9.20
2019-02-09T17:13:15.238Z,9.20
2019-02-09T17:15:51.397Z,9.20
2019-02-09T17:18:39.749Z,9.20
2019-02-09T17:21:09.016Z,9.20
2019-02-09T17:23:38.496Z,9.20
2019-02-09T17:26:08.022Z,9.10
2019-02-09T17:28:56.597Z,9.10
2019-02-09T17:31:44.896Z,9.10
2019-02-09T17:34:26.148Z,9.10
2019-02-09T17:37:09.769Z,9.00
2019-02-09T17:39:51.540Z,9.00
2019-02-09T17:42:32.692Z,8.90
2019-02-09T17:45:19.321Z,8.90
2019-02-09T17:53:43.483Z,8.90
2019-02-09T17:56:25.147Z,8.80
2019-02-09T17:59:15.195Z,8.80
2019-02-09T18:01:40.256Z,8.80
2019-02-09T18:04:29.421Z,8.80
2019-02-09T18:07:18.277Z,8.80
2019-02-09T18:09:59.699Z,8.80
2019-02-09T18:12:42.438Z,8.80
2019-02-09T18:15:23.907Z,8.80
2019-02-09T18:18:04.458Z,8.80
2019-02-09T18:20:45.323Z,8.80
2019-02-09T18:23:30.639Z,8.80
2019-02-09T18:26:15.980Z,8.70
2019-02-09T18:28:54.652Z,8.70
2019-02-09T18:31:35.690Z,8.70
2019-02-09T18:34:17.149Z,8.70
2019-02-09T18:36:58.872Z,8.70
2019-02-09T18:39:42.358Z,8.60
2019-02-09T18:42:33.388Z,8.60
2019-02-09T18:45:14.990Z,8.60
2019-02-09T18:47:56.020Z,8.50
2019-02-09T18:50:36.835Z,8.50
2019-02-09T18:53:17.598Z,8.50
2019-02-09T18:55:57.252Z,8.40
2019-02-09T18:58:45.618Z,8.50
2019-02-09T19:01:34.052Z,8.40
2019-02-09T19:04:15.178Z,8.50
2019-02-09T19:06:56.975Z,8.50
2019-02-09T19:09:38.209Z,8.50
2019-02-09T19:12:19.478Z,8.50
2019-02-09T19:15:03.068Z,8.40
2019-02-09T19:17:44.512Z,8.40
2019-02-09T19:20:27.468Z,8.50
2019-02-09T19:23:08.744Z,8.50
2019-02-09T19:25:50.199Z,8.50
2019-02-09T19:28:30.923Z,8.50
2019-02-09T19:31:14.312Z,8.50
2019-02-09T19:33:55.429Z,8.50
2019-02-09T19:36:36.212Z,8.50
2019-02-09T19:39:17.795Z,8.50
2019-02-09T19:44:45.846Z,8.40
2019-02-09T19:47:33.145Z,8.30
2019-02-09T19:50:22.911Z,8.30
2019-02-09T19:53:07.637Z,8.20
2019-02-09T19:58:41.008Z,8.20
2019-02-09T20:01:22.413Z,8.10
2019-02-09T20:04:03.309Z,8.20
2019-02-09T20:06:45.443Z,8.20
2019-02-09T20:09:26.826Z,8.20
2019-02-09T20:12:08.521Z,8.10
2019-02-09T20:14:50.029Z,8.10
2019-02-09T20:17:31.318Z,8.10
2019-02-09T20:20:13.110Z,8.10
2019-02-09T20:25:46.919Z,8.00
2019-02-09T20:28:40.019Z,8.00
2019-02-09T20:37:17.582Z,7.90
2019-02-09T20:39:57.251Z,7.90
2019-02-09T20:42:45.778Z,7.90
2019-02-09T20:45:27.244Z,7.90
2019-02-09T20:48:08.271Z,7.80
2019-02-09T20:50:49.524Z,7.80
2019-02-09T20:53:30.223Z,7.80
2019-02-09T20:56:11.062Z,7.80
2019-02-09T20:58:52.482Z,7.80
2019-02-09T21:01:34.452Z,7.80
2019-02-09T21:04:15.671Z,7.80
2019-02-09T21:06:57.484Z,7.70
2019-02-09T21:09:40.616Z,7.80
2019-02-09T21:12:21.620Z,7.80
2019-02-09T21:15:02.353Z,7.80
2019-02-09T21:17:43.118Z,7.80
2019-02-09T21:20:23.934Z,7.80
2019-02-09T21:23:05.472Z,7.80
2019-02-09T21:25:46.576Z,7.80
2019-02-09T21:28:35.819Z,7.90
2019-02-09T21:31:16.665Z,7.80
2019-02-09T21:33:58.950Z,7.90
2019-02-09T21:36:40.341Z,7.90
2019-02-09T21:39:21.610Z,7.90
2019-02-09T21:42:03.137Z,7.90
2019-02-09T21:44:44.116Z,8.00
2019-02-09T21:47:25.614Z,8.00
2019-02-09T21:50:11.774Z,8.10
2019-02-09T21:52:52.340Z,8.10
2019-02-09T21:55:31.676Z,8.20
2019-02-09T21:58:11.927Z,8.20
2019-02-09T22:00:52.863Z,8.20
2019-02-09T22:03:33.644Z,8.20
2019-02-09T22:06:18.209Z,8.20
2019-02-09T22:11:43.940Z,8.20
2019-02-09T22:14:25.252Z,8.20
2019-02-09T22:17:06.769Z,8.20
2019-02-09T22:19:48.013Z,8.20
2019-02-09T22:22:31.223Z,8.20
2019-02-09T22:25:10.120Z,8.20
2019-02-09T22:31:05.161Z,8.20
2019-02-09T22:36:38.319Z,8.20
2019-02-09T22:39:09.764Z,8.10
2019-02-09T22:41:39.238Z,8.20
2019-02-09T22:47:26.003Z,8.10
2019-02-09T22:50:08.655Z,8.20
2019-02-09T22:52:50.515Z,8.20
2019-02-09T22:55:32.897Z,8.20
2019-02-09T22:58:14.594Z,8.20
2019-02-09T23:00:57.654Z,8.20
2019-02-09T23:03:40.298Z,8.20
2019-02-09T23:06:21.642Z,8.20
2019-02-09T23:09:05.722Z,8.20
2019-02-09T23:11:47.340Z,8.20
2019-02-09T23:14:27.944Z,8.30
2019-02-09T23:17:12.774Z,8.20
2019-02-09T23:19:52.433Z,8.20
2019-02-09T23:22:33.219Z,8.20
2019-02-09T23:25:14.354Z,8.20
2019-02-09T23:27:55.810Z,8.30
2019-02-09T23:30:37.034Z,8.20
2019-02-09T23:33:18.948Z,8.20
2019-02-09T23:35:59.999Z,8.20
2019-02-09T23:41:41.007Z,8.10
2019-02-09T23:44:29.970Z,8.10
2019-02-09T23:47:12.754Z,8.10
2019-02-09T23:49:54.523Z,8.10
2019-02-09T23:52:35.712Z,8.10
2019-02-09T23:55:18.421Z,8.10
2019-02-09T23:57:59.697Z,8.20
